KCVO - Corvallis Muni A, Oregon
Updated: Mon, 10-May-2021 9:56pm PDT
Clear
Clear
 Wind from NW
Wind: NW 10 mph , 17 km/h
Temperature: 55°F , 13°C
Dew Point: 46°F , 8°C
Humidity: 72%
Barometer: 30.18 inHg , 1022 hPa
Clouds: Clear
Visibility: 10 miles , 16 km
2021/05/11 04:56 KCVO 110456Z AUTO 31009KT 10SM CLR 13/08 A3018 RMK AO2 SLP221 T01280083